Time;durP1;ratioP1;P1;durP2;ratioP2;P2;SDS_P1;SDS_P2;PMS_P1;PMS_P2;Temp;Humidity;BMP_temperature;BMP_pressure;BME280_temperature;BME280_humidity;BME280_pressure;Samples;Min_cycle;Max_cycle;Signal;HPM_P1;HPM_P2
2021/06/06 00:00:43;;;;;;;;;;;;;;;22.19;50.97;100947.00;5039201;28;780;-56
2021/06/06 00:03:14;;;;;;;;;;;;;;;22.34;50.26;100939.50;5037968;28;963;-55
2021/06/06 00:05:55;;;;;;;;;;;;;;;22.29;50.55;100940.41;5038598;28;832;-56
2021/06/06 00:08:20;;;;;;;;;;;;;;;22.17;50.58;100935.38;5038831;28;788;-55
2021/06/06 00:10:46;;;;;;;;;;;;;;;22.09;51.29;100940.81;5038309;28;790;-56
2021/06/06 00:13:12;;;;;;;;;;;;;;;22.29;50.42;100934.06;5038498;28;1902;-56
2021/06/06 00:15:39;;;;;;;;;;;;;;;22.35;50.37;100924.53;5038372;28;1041;-55
2021/06/06 00:18:05;;;;;;;;;;;;;;;22.47;49.95;100922.06;5020113;28;1019;-56
2021/06/06 00:20:30;;;;;;;;;;;;;;;22.33;50.16;100924.84;5038713;28;815;-56
2021/06/06 00:22:56;;;;;;;;;;;;;;;22.51;49.86;100914.78;5038740;28;840;-56
2021/06/06 00:25:21;;;;;;;;;;;;;;;22.37;50.16;100912.03;5038407;28;875;-56
2021/06/06 00:27:47;;;;;;;;;;;;;;;22.48;49.89;100909.03;5038179;28;771;-56
2021/06/06 00:30:13;;;;;;;;;;;;;;;22.40;50.23;100910.59;5036788;28;825;-55
2021/06/06 00:32:38;;;;;;;;;;;;;;;22.52;49.77;100910.03;5019593;28;2358;-56
2021/06/06 00:35:05;;;;;;;;;;;;;;;22.65;49.45;100905.59;5037784;28;783;-55
2021/06/06 00:37:30;;;;;;;;;;;;;;;22.44;49.92;100908.00;5038562;28;764;-55
2021/06/06 00:39:56;;;;;;;;;;;;;;;22.38;50.14;100901.75;5020384;28;1417;-55
2021/06/06 00:42:22;;;;;;;;;;;;;;;22.29;50.59;100903.59;5020255;28;1198;-56
2021/06/06 00:44:52;;;;;;;;;;;;;;;22.16;50.99;100899.69;5020542;28;1199;-56
2021/06/06 00:47:17;;;;;;;;;;;;;;;22.34;50.14;100897.97;5002088;28;1305;-54
2021/06/06 00:49:43;;;;;;;;;;;;;;;22.35;50.44;100899.59;5037535;28;780;-52
2021/06/06 00:52:09;;;;;;;;;;;;;;;22.54;49.91;100891.97;5038558;28;1909;-55
2021/06/06 00:54:36;;;;;;;;;;;;;;;22.47;49.98;100890.75;5020015;28;753;-55
2021/06/06 00:57:03;;;;;;;;;;;;;;;22.25;50.46;100888.72;5019716;28;777;-55
2021/06/06 00:59:30;;;;;;;;;;;;;;;22.36;50.35;100890.19;5004088;28;1292;-56
2021/06/06 01:01:57;;;;;;;;;;;;;;;22.53;49.88;100890.34;5003594;28;1222;-56
2021/06/06 01:04:23;;;;;;;;;;;;;;;22.37;50.09;100892.63;5019284;28;1117;-56
2021/06/06 01:06:49;;;;;;;;;;;;;;;22.47;49.89;100891.59;5037544;28;765;-57
2021/06/06 01:09:16;;;;;;;;;;;;;;;22.30;50.33;100896.91;5037625;28;737;-56
2021/06/06 01:11:46;;;;;;;;;;;;;;;22.50;49.87;100896.50;5018954;28;1993;-56
2021/06/06 01:14:15;;;;;;;;;;;;;;;22.51;49.96;100892.59;5003780;28;1429;-55
2021/06/06 01:16:46;;;;;;;;;;;;;;;22.36;50.24;100884.63;5036742;28;1195;-57
2021/06/06 01:19:16;;;;;;;;;;;;;;;22.36;50.17;100892.94;5019109;28;1501;-56
2021/06/06 01:21:45;;;;;;;;;;;;;;;22.28;50.50;100893.63;5036203;28;1246;-56
2021/06/06 01:24:22;;;;;;;;;;;;;;;22.29;50.53;100885.03;5037499;28;808;-55
2021/06/06 01:26:51;;;;;;;;;;;;;;;22.34;50.37;100884.94;5036800;28;812;-55
2021/06/06 01:29:17;;;;;;;;;;;;;;;22.39;50.30;100878.47;5019518;28;1159;-55
2021/06/06 01:31:44;;;;;;;;;;;;;;;22.30;50.47;100874.75;5019072;28;1985;-54
2021/06/06 01:34:11;;;;;;;;;;;;;;;22.34;50.20;100873.03;5019271;28;1139;-54
2021/06/06 01:36:39;;;;;;;;;;;;;;;22.28;50.48;100868.72;5019415;28;757;-55
2021/06/06 01:39:16;;;;;;;;;;;;;;;22.42;50.18;100868.72;5019757;28;866;-54
2021/06/06 01:41:43;;;;;;;;;;;;;;;22.45;49.87;100874.44;5019345;28;1426;-55
2021/06/06 01:44:14;;;;;;;;;;;;;;;22.15;50.59;100873.94;4987934;28;1303;-56
2021/06/06 01:46:42;;;;;;;;;;;;;;;22.30;50.39;100881.13;5018979;28;1003;-55
2021/06/06 01:49:08;;;;;;;;;;;;;;;21.99;51.10;100875.38;5018864;28;1016;-55
2021/06/06 01:51:38;;;;;;;;;;;;;;;22.23;50.89;100869.63;5035545;28;1121;-55
2021/06/06 01:54:08;;;;;;;;;;;;;;;22.33;50.44;100863.03;5019118;28;761;-50
2021/06/06 01:56:36;;;;;;;;;;;;;;;22.31;50.58;100868.09;5036335;28;836;-54
2021/06/06 01:59:08;;;;;;;;;;;;;;;22.28;50.63;100871.47;5003142;28;1124;-53
2021/06/06 02:01:41;;;;;;;;;;;;;;;22.04;51.23;100870.56;5019971;28;1215;-55
2021/06/06 02:04:08;;;;;;;;;;;;;;;22.12;50.90;100871.81;5018854;28;1467;-54
2021/06/06 02:06:53;;;;;;;;;;;;;;;22.17;50.75;100877.22;5036741;28;839;-55
2021/06/06 02:09:26;;;;;;;;;;;;;;;22.26;50.52;100870.97;5036353;28;785;-54
2021/06/06 02:12:05;;;;;;;;;;;;;;;22.08;51.02;100862.47;5036487;28;1906;-55
2021/06/06 02:14:42;;;;;;;;;;;;;;;21.98;51.29;100862.66;5019068;28;1239;-54
2021/06/06 02:17:16;;;;;;;;;;;;;;;21.92;51.52;100863.91;5017836;28;1100;-54
2021/06/06 02:19:53;;;;;;;;;;;;;;;22.24;50.63;100867.69;5018994;28;1263;-54
2021/06/06 02:22:26;;;;;;;;;;;;;;;22.07;50.94;100862.78;5018781;28;1290;-54
2021/06/06 02:24:52;;;;;;;;;;;;;;;22.07;50.99;100858.06;5036240;28;788;-57
2021/06/06 02:27:24;;;;;;;;;;;;;;;22.16;50.56;100853.44;5018740;28;1493;-56
2021/06/06 02:29:51;;;;;;;;;;;;;;;22.28;50.60;100854.88;5036412;28;792;-56
2021/06/06 02:32:50;;;;;;;;;;;;;;;22.06;50.83;100853.63;5017229;28;1906;-56
2021/06/06 02:35:21;;;;;;;;;;;;;;;22.22;50.66;100854.16;5013811;28;1067;-51
2021/06/06 02:37:53;;;;;;;;;;;;;;;22.22;50.63;100843.88;5003394;28;803;-52
2021/06/06 02:40:30;;;;;;;;;;;;;;;22.29;50.29;100856.50;5018621;28;1230;-54
2021/06/06 02:42:57;;;;;;;;;;;;;;;22.02;51.13;100852.63;5018696;28;1159;-55
2021/06/06 02:45:27;;;;;;;;;;;;;;;22.17;50.68;100849.53;5018706;28;1155;-57
2021/06/06 02:47:54;;;;;;;;;;;;;;;22.24;50.57;100843.56;4998251;28;1152;-55
2021/06/06 02:50:27;;;;;;;;;;;;;;;22.27;50.40;100850.44;5015939;28;785;-57
2021/06/06 02:52:58;;;;;;;;;;;;;;;22.20;50.53;100846.16;5029248;28;1983;-57
2021/06/06 02:55:34;;;;;;;;;;;;;;;22.20;50.42;100840.63;5018986;28;784;-47
2021/06/06 02:58:04;;;;;;;;;;;;;;;22.14;50.68;100850.16;5019174;28;760;-55
2021/06/06 03:00:36;;;;;;;;;;;;;;;22.18;50.82;100856.72;5019191;28;1123;-53
2021/06/06 03:03:05;;;;;;;;;;;;;;;22.03;51.28;100851.50;5018940;28;964;-55
2021/06/06 03:05:33;;;;;;;;;;;;;;;22.21;50.61;100850.53;5018547;28;1247;-54
2021/06/06 03:08:02;;;;;;;;;;;;;;;22.28;50.29;100838.25;5018586;28;1155;-52
2021/06/06 03:10:31;;;;;;;;;;;;;;;22.21;50.57;100853.31;5018092;28;1172;-50
2021/06/06 03:13:02;;;;;;;;;;;;;;;22.26;50.63;100849.63;5035945;28;1910;-52
2021/06/06 03:15:32;;;;;;;;;;;;;;;22.36;50.13;100845.84;5037660;28;784;-52
2021/06/06 03:17:58;;;;;;;;;;;;;;;22.41;49.95;100842.94;5037753;28;960;-50
2021/06/06 03:20:36;;;;;;;;;;;;;;;22.33;50.25;100841.75;5006059;28;1130;-52
2021/06/06 03:23:04;;;;;;;;;;;;;;;22.28;50.14;100839.06;5021746;28;1158;-54
2021/06/06 03:25:32;;;;;;;;;;;;;;;22.21;50.72;100835.88;5005297;28;1135;-52
2021/06/06 03:28:01;;;;;;;;;;;;;;;22.22;50.51;100837.53;5006394;28;1167;-53
2021/06/06 03:30:45;;;;;;;;;;;;;;;22.33;50.13;100836.22;5038928;28;776;-53
2021/06/06 03:33:29;;;;;;;;;;;;;;;22.43;49.85;100835.16;5021092;28;1973;-54
2021/06/06 03:35:56;;;;;;;;;;;;;;;22.50;49.71;100834.72;5005139;28;1271;-56
2021/06/06 03:38:23;;;;;;;;;;;;;;;22.33;50.24;100836.22;5021392;28;1340;-53
2021/06/06 03:40:50;;;;;;;;;;;;;;;22.51;49.93;100834.41;5021665;28;1282;-50
2021/06/06 03:43:32;;;;;;;;;;;;;;;22.43;50.14;100837.94;5039318;28;803;-55
2021/06/06 03:45:58;;;;;;;;;;;;;;;22.52;49.72;100830.50;5039027;28;772;-52
2021/06/06 03:48:28;;;;;;;;;;;;;;;22.49;49.67;100825.59;5021271;28;1198;-49
2021/06/06 03:50:55;;;;;;;;;;;;;;;22.34;50.14;100825.94;5021151;28;1301;-49
2021/06/06 03:53:23;;;;;;;;;;;;;;;22.30;50.40;100822.13;5038673;28;1910;-44
2021/06/06 03:55:49;;;;;;;;;;;;;;;22.32;50.31;100822.63;5038803;28;1486;-51
2021/06/06 03:58:17;;;;;;;;;;;;;;;22.37;50.23;100814.22;5020435;28;951;-53
2021/06/06 04:00:44;;;;;;;;;;;;;;;22.34;50.20;100814.84;5021027;28;1222;-47
2021/06/06 04:03:11;;;;;;;;;;;;;;;22.28;50.52;100811.34;5004284;28;1518;-47
2021/06/06 04:05:41;;;;;;;;;;;;;;;22.29;50.47;100813.00;5038665;28;824;-52
2021/06/06 04:08:07;;;;;;;;;;;;;;;22.49;49.91;100808.16;5021065;28;1151;-49
2021/06/06 04:10:37;;;;;;;;;;;;;;;22.33;50.24;100800.19;5020724;28;1097;-53
2021/06/06 04:13:06;;;;;;;;;;;;;;;22.44;49.83;100792.47;5038936;28;1906;-48
2021/06/06 04:15:33;;;;;;;;;;;;;;;22.34;50.26;100792.69;5020403;28;1171;-55
2021/06/06 04:18:08;;;;;;;;;;;;;;;22.43;50.01;100795.53;5037972;28;964;-48
2021/06/06 04:20:34;;;;;;;;;;;;;;;22.58;49.65;100797.97;5021107;28;1224;-48
2021/06/06 04:23:00;;;;;;;;;;;;;;;22.58;49.47;100797.97;5020630;28;940;-49
2021/06/06 04:25:25;;;;;;;;;;;;;;;22.31;50.32;100793.28;5037927;28;764;-49
2021/06/06 04:27:52;;;;;;;;;;;;;;;22.46;49.96;100792.16;5038425;28;788;-49
2021/06/06 04:30:18;;;;;;;;;;;;;;;22.58;49.60;100783.28;5020576;28;1226;-50
2021/06/06 04:32:44;;;;;;;;;;;;;;;22.49;49.90;100784.00;5037558;28;1909;-51
2021/06/06 04:35:10;;;;;;;;;;;;;;;22.47;49.84;100771.59;5020210;28;1147;-49
2021/06/06 04:37:37;;;;;;;;;;;;;;;22.58;49.67;100786.03;5004218;28;876;-48
2021/06/06 04:40:07;;;;;;;;;;;;;;;22.38;50.10;100796.47;5038354;28;768;-51
2021/06/06 04:42:33;;;;;;;;;;;;;;;22.73;49.14;100791.22;5004367;28;955;-50
2021/06/06 04:45:07;;;;;;;;;;;;;;;21.80;51.82;100801.59;5020027;28;1164;-52
2021/06/06 04:47:34;;;;;;;;;;;;;;;21.69;52.16;100803.72;5000759;28;1588;-49
2021/06/06 04:50:02;;;;;;;;;;;;;;;21.23;51.87;100809.31;5000925;28;1155;-44
2021/06/06 04:52:35;;;;;;;;;;;;;;;21.65;52.35;100801.91;5011203;28;1902;-54
2021/06/06 04:55:04;;;;;;;;;;;;;;;22.05;51.17;100803.00;5022199;28;745;-49
2021/06/06 04:57:32;;;;;;;;;;;;;;;22.41;50.10;100797.81;5037755;28;819;-53
2021/06/06 04:59:57;;;;;;;;;;;;;;;22.65;49.33;100809.44;5037672;28;805;-49
2021/06/06 05:02:26;;;;;;;;;;;;;;;22.06;51.00;100801.03;5003358;28;961;-49
2021/06/06 05:04:57;;;;;;;;;;;;;;;21.81;51.44;100807.94;5020065;28;1155;-50
2021/06/06 05:07:23;;;;;;;;;;;;;;;21.35;52.28;100804.13;5020069;28;793;-50
2021/06/06 05:09:52;;;;;;;;;;;;;;;21.77;51.93;100810.50;5020413;28;1119;-50
2021/06/06 05:12:18;;;;;;;;;;;;;;;21.85;51.47;100814.50;5037257;28;1910;-48
2021/06/06 05:14:44;;;;;;;;;;;;;;;22.04;51.01;100817.16;5037137;28;825;-49
2021/06/06 05:17:11;;;;;;;;;;;;;;;22.11;50.80;100812.00;5036875;28;1182;-49
2021/06/06 05:19:45;;;;;;;;;;;;;;;21.92;51.30;100816.84;5037469;28;745;-51
2021/06/06 05:22:15;;;;;;;;;;;;;;;22.09;50.68;100810.66;5019675;28;1274;-48
2021/06/06 05:24:41;;;;;;;;;;;;;;;22.17;50.68;100804.41;5037089;28;796;-49
2021/06/06 05:27:07;;;;;;;;;;;;;;;22.03;50.96;100809.97;5019725;28;1204;-54
2021/06/06 05:29:32;;;;;;;;;;;;;;;22.12;50.83;100808.13;5036739;28;1060;-47
2021/06/06 05:31:58;;;;;;;;;;;;;;;22.18;50.36;100801.31;5036517;28;1906;-52
2021/06/06 05:34:23;;;;;;;;;;;;;;;22.45;49.75;100816.25;5036657;28;1010;-48
2021/06/06 05:36:49;;;;;;;;;;;;;;;22.29;50.39;100812.19;5036064;28;803;-50
2021/06/06 05:39:14;;;;;;;;;;;;;;;22.28;50.55;100805.00;5018617;28;1148;-48
2021/06/06 05:41:40;;;;;;;;;;;;;;;22.26;50.52;100810.00;5019532;28;1096;-46
2021/06/06 05:44:05;;;;;;;;;;;;;;;22.18;50.80;100797.75;5036477;28;761;-48
2021/06/06 05:46:31;;;;;;;;;;;;;;;22.39;50.14;100803.66;5036762;28;776;-48
2021/06/06 05:48:56;;;;;;;;;;;;;;;22.44;49.88;100803.56;5018348;28;976;-49
2021/06/06 05:51:22;;;;;;;;;;;;;;;22.44;49.92;100802.72;5036577;28;1128;-47
2021/06/06 05:54:17;;;;;;;;;;;;;;;22.52;49.82;100800.00;5023347;28;1192;-46
2021/06/06 05:56:45;;;;;;;;;;;;;;;22.52;49.64;100800.00;5036688;28;773;-46
2021/06/06 05:59:10;;;;;;;;;;;;;;;22.49;49.79;100799.84;5036502;28;752;-47
2021/06/06 06:01:36;;;;;;;;;;;;;;;22.45;49.94;100794.09;5036476;28;780;-49
2021/06/06 06:04:01;;;;;;;;;;;;;;;22.53;49.76;100798.88;5036165;28;1075;-47
2021/06/06 06:06:27;;;;;;;;;;;;;;;22.44;50.00;100798.00;5018522;28;1459;-59
2021/06/06 06:08:53;;;;;;;;;;;;;;;22.42;50.02;100797.50;5036463;28;867;-55
2021/06/06 06:11:19;;;;;;;;;;;;;;;22.52;49.67;100790.88;5036362;28;764;-53
2021/06/06 06:13:46;;;;;;;;;;;;;;;22.31;50.27;100793.28;5002658;28;1983;-56
2021/06/06 06:16:33;;;;;;;;;;;;;;;21.78;51.78;100795.53;5036123;28;1189;-56
2021/06/06 06:18:59;;;;;;;;;;;;;;;21.68;51.83;100793.78;4998948;28;957;-58
2021/06/06 06:21:25;;;;;;;;;;;;;;;21.28;52.45;100790.69;5014828;28;826;-54
2021/06/06 06:23:50;;;;;;;;;;;;;;;21.80;51.95;100787.75;5015361;28;825;-56
2021/06/06 06:26:16;;;;;;;;;;;;;;;22.26;50.61;100787.84;5016386;28;768;-56
2021/06/06 06:28:49;;;;;;;;;;;;;;;22.59;49.70;100788.50;4998192;28;820;-57
2021/06/06 06:31:38;;;;;;;;;;;;;;;22.54;49.70;100781.13;5010923;28;1463;-57
2021/06/06 06:34:08;;;;;;;;;;;;;;;22.22;50.63;100784.91;5018518;28;1913;-58
2021/06/06 06:36:33;;;;;;;;;;;;;;;22.14;50.25;100782.88;5035635;28;900;-58
2021/06/06 06:39:00;;;;;;;;;;;;;;;21.77;50.55;100788.38;5018263;28;801;-57
2021/06/06 06:41:27;;;;;;;;;;;;;;;21.80;51.16;100787.75;5017462;28;870;-57
2021/06/06 06:43:52;;;;;;;;;;;;;;;21.99;51.54;100786.78;5001134;28;855;-58
2021/06/06 06:46:18;;;;;;;;;;;;;;;22.46;50.21;100784.66;5035881;28;725;-56
2021/06/06 06:48:44;;;;;;;;;;;;;;;22.75;49.19;100783.41;5000798;28;1222;-55
2021/06/06 06:51:09;;;;;;;;;;;;;;;22.34;50.36;100787.16;5019991;28;872;-57
2021/06/06 06:53:35;;;;;;;;;;;;;;;22.27;50.69;100782.00;4986729;28;1914;-59
2021/06/06 06:56:00;;;;;;;;;;;;;;;21.86;49.69;100786.50;5019833;28;844;-56
2021/06/06 06:58:26;;;;;;;;;;;;;;;21.86;51.21;100783.72;5002395;28;899;-56
2021/06/06 07:00:52;;;;;;;;;;;;;;;22.13;51.23;100781.22;5020014;28;795;-57
2021/06/06 07:03:18;;;;;;;;;;;;;;;22.56;49.77;100770.53;5032851;28;964;-57
2021/06/06 07:05:44;;;;;;;;;;;;;;;22.32;50.35;100770.00;5039855;28;859;-58
2021/06/06 07:08:18;;;;;;;;;;;;;;;22.13;50.98;100765.44;5022095;28;888;-59
2021/06/06 07:10:44;;;;;;;;;;;;;;;21.74;50.83;100768.78;5039420;28;963;-58
2021/06/06 07:13:09;;;;;;;;;;;;;;;21.55;52.68;100761.44;5039222;28;1979;-53
2021/06/06 07:15:35;;;;;;;;;;;;;;;22.00;51.38;100771.81;5005494;28;1025;-55
2021/06/06 07:18:00;;;;;;;;;;;;;;;22.02;51.25;100769.56;5039066;28;953;-55
2021/06/06 07:20:27;;;;;;;;;;;;;;;22.13;51.10;100770.16;5039439;28;848;-57
2021/06/06 07:22:53;;;;;;;;;;;;;;;22.27;50.58;100775.66;5039221;28;776;-55
2021/06/06 07:25:18;;;;;;;;;;;;;;;22.25;50.59;100775.16;5039340;28;883;-58
2021/06/06 07:27:44;;;;;;;;;;;;;;;22.19;50.65;100769.72;5021625;28;841;-52
2021/06/06 07:30:11;;;;;;;;;;;;;;;22.24;50.60;100767.97;5039484;28;761;-52
2021/06/06 07:32:37;;;;;;;;;;;;;;;22.11;50.85;100769.66;5021077;28;2015;-55
2021/06/06 07:35:03;;;;;;;;;;;;;;;22.13;50.93;100773.75;5039022;28;792;-58
2021/06/06 07:37:28;;;;;;;;;;;;;;;22.20;50.56;100770.53;5038902;28;519;-58
2021/06/06 07:39:54;;;;;;;;;;;;;;;22.46;49.72;100767.22;5039344;28;784;-58
2021/06/06 07:42:19;;;;;;;;;;;;;;;22.35;50.26;100769.41;5021035;28;823;-58
2021/06/06 07:44:45;;;;;;;;;;;;;;;22.32;50.48;100772.78;5038913;28;852;-58
2021/06/06 07:47:10;;;;;;;;;;;;;;;22.40;50.21;100760.97;5038370;28;952;-58
2021/06/06 07:49:36;;;;;;;;;;;;;;;22.42;49.85;100767.00;5020717;28;825;-56
2021/06/06 07:52:02;;;;;;;;;;;;;;;22.50;49.69;100757.94;5020340;28;1914;-59
2021/06/06 07:54:28;;;;;;;;;;;;;;;22.46;49.79;100762.47;5021261;28;1545;-58
2021/06/06 07:56:55;;;;;;;;;;;;;;;22.06;51.09;100767.81;5038394;28;736;-58
2021/06/06 07:59:20;;;;;;;;;;;;;;;22.27;50.14;100775.66;5038527;28;767;-56
2021/06/06 08:01:47;;;;;;;;;;;;;;;22.45;50.07;100773.88;5038147;28;972;-59
2021/06/06 08:04:13;;;;;;;;;;;;;;;22.39;50.07;100756.56;5038345;28;956;-59
2021/06/06 08:06:38;;;;;;;;;;;;;;;22.31;50.24;100771.13;5038548;28;760;-59
2021/06/06 08:09:04;;;;;;;;;;;;;;;22.21;50.65;100761.91;5038810;28;839;-58
2021/06/06 08:11:29;;;;;;;;;;;;;;;22.18;50.67;100762.53;5019975;28;806;-59
2021/06/06 08:13:55;;;;;;;;;;;;;;;22.25;50.65;100769.63;5038953;28;1931;-59
2021/06/06 08:16:20;;;;;;;;;;;;;;;22.15;50.84;100768.72;5038208;28;1171;-58
2021/06/06 08:18:46;;;;;;;;;;;;;;;22.10;50.72;100771.59;5019903;28;1016;-59
2021/06/06 08:21:12;;;;;;;;;;;;;;;22.41;50.19;100770.91;5038178;28;717;-59
2021/06/06 08:23:37;;;;;;;;;;;;;;;22.25;50.48;100766.84;5038310;28;745;-59
2021/06/06 08:26:03;;;;;;;;;;;;;;;22.13;50.97;100770.16;5020943;28;701;-60
2021/06/06 08:28:29;;;;;;;;;;;;;;;22.33;50.34;100774.41;5003811;28;944;-59
2021/06/06 08:30:56;;;;;;;;;;;;;;;22.34;50.13;100776.06;5038273;28;780;-59
2021/06/06 08:33:23;;;;;;;;;;;;;;;22.12;50.74;100779.59;5019675;28;1922;-58
2021/06/06 08:35:50;;;;;;;;;;;;;;;22.10;50.87;100779.09;5036798;28;784;-58
2021/06/06 08:38:15;;;;;;;;;;;;;;;22.27;50.67;100770.91;5037955;28;780;-57
2021/06/06 08:40:47;;;;;;;;;;;;;;;22.14;50.90;100767.06;5038070;28;808;-56
2021/06/06 08:43:12;;;;;;;;;;;;;;;22.24;50.50;100777.09;5037690;28;836;-59
2021/06/06 08:45:40;;;;;;;;;;;;;;;22.40;50.10;100769.28;5037823;28;757;-59
2021/06/06 08:48:06;;;;;;;;;;;;;;;22.31;50.38;100771.13;5036044;28;1006;-59
2021/06/06 08:50:36;;;;;;;;;;;;;;;22.45;49.91;100771.91;5037742;28;752;-59
2021/06/06 08:53:19;;;;;;;;;;;;;;;22.37;50.32;100772.66;5017566;28;1918;-59
2021/06/06 08:55:54;;;;;;;;;;;;;;;22.47;49.73;100766.06;5038331;28;793;-59
2021/06/06 08:58:22;;;;;;;;;;;;;;;21.98;51.28;100768.53;5037338;28;749;-59
2021/06/06 09:00:50;;;;;;;;;;;;;;;21.85;51.75;100759.97;5037648;28;780;-59
2021/06/06 09:03:23;;;;;;;;;;;;;;;21.36;51.16;100769.78;5037018;28;944;-58
2021/06/06 09:05:49;;;;;;;;;;;;;;;21.83;51.63;100784.34;5003107;28;872;-58
2021/06/06 09:08:18;;;;;;;;;;;;;;;21.82;51.72;100779.13;5019814;28;852;-59
2021/06/06 09:10:45;;;;;;;;;;;;;;;22.18;50.65;100773.63;5019795;28;816;-59
2021/06/06 09:13:11;;;;;;;;;;;;;;;21.97;51.44;100780.75;5036430;28;1914;-58
2021/06/06 09:15:36;;;;;;;;;;;;;;;22.11;50.97;100789.84;5037191;28;1079;-54
2021/06/06 09:18:22;;;;;;;;;;;;;;;22.13;50.72;100792.31;5036804;28;885;-55
2021/06/06 09:20:48;;;;;;;;;;;;;;;22.08;50.93;100784.09;5036757;28;1123;-60
2021/06/06 09:23:18;;;;;;;;;;;;;;;22.08;50.87;100779.41;5037327;28;836;-60
2021/06/06 09:25:44;;;;;;;;;;;;;;;22.27;50.47;100770.13;5019833;28;769;-59
2021/06/06 09:28:14;;;;;;;;;;;;;;;22.35;50.48;100766.63;5019347;28;915;-55
2021/06/06 09:30:41;;;;;;;;;;;;;;;22.41;50.14;100770.09;5037041;28;800;-56
2021/06/06 09:33:06;;;;;;;;;;;;;;;22.32;50.44;100768.03;5036216;28;1976;-59
2021/06/06 09:35:33;;;;;;;;;;;;;;;22.33;50.37;100766.09;5036820;28;771;-59
2021/06/06 09:38:09;;;;;;;;;;;;;;;22.41;50.11;100768.13;5037077;28;860;-59
2021/06/06 09:40:36;;;;;;;;;;;;;;;22.15;50.74;100768.72;5036707;28;800;-59
2021/06/06 09:43:01;;;;;;;;;;;;;;;22.09;51.05;100769.97;5036961;28;837;-58
2021/06/06 09:45:33;;;;;;;;;;;;;;;22.31;50.42;100776.66;5037208;28;761;-60
2021/06/06 09:48:00;;;;;;;;;;;;;;;22.17;50.92;100776.72;5036090;28;944;-59
2021/06/06 09:50:29;;;;;;;;;;;;;;;22.32;50.57;100767.25;5018589;28;823;-58
2021/06/06 09:52:54;;;;;;;;;;;;;;;22.16;50.92;100773.13;5036774;28;1918;-57
2021/06/06 09:55:27;;;;;;;;;;;;;;;22.36;50.32;100774.63;5036536;28;783;-57
2021/06/06 09:58:05;;;;;;;;;;;;;;;22.08;51.02;100773.88;5019236;28;797;-58
2021/06/06 10:00:34;;;;;;;;;;;;;;;21.64;52.53;100781.72;5019175;28;784;-59
2021/06/06 10:03:05;;;;;;;;;;;;;;;21.66;52.21;100784.19;5018430;28;948;-59
2021/06/06 10:05:31;;;;;;;;;;;;;;;21.31;53.64;100783.72;5036931;28;808;-60
2021/06/06 10:07:57;;;;;;;;;;;;;;;21.90;51.84;100799.75;5036496;28;816;-60
2021/06/06 10:10:27;;;;;;;;;;;;;;;22.28;50.81;100788.38;5036313;28;807;-59
2021/06/06 10:12:53;;;;;;;;;;;;;;;22.49;50.03;100786.78;5035261;28;1983;-56
2021/06/06 10:15:35;;;;;;;;;;;;;;;22.14;51.17;100786.47;5035414;28;745;-60
2021/06/06 10:18:01;;;;;;;;;;;;;;;22.17;51.04;100785.00;5033498;28;970;-56
2021/06/06 10:20:43;;;;;;;;;;;;;;;21.77;49.76;100796.69;5019089;28;776;-60
2021/06/06 10:23:08;;;;;;;;;;;;;;;21.74;51.00;100797.28;5018282;28;780;-60
2021/06/06 10:25:34;;;;;;;;;;;;;;;22.03;51.89;100798.88;5036127;28;761;-60
2021/06/06 10:28:00;;;;;;;;;;;;;;;22.42;50.67;100793.91;5018911;28;1206;-56
2021/06/06 10:30:28;;;;;;;;;;;;;;;22.69;49.69;100791.03;5018141;28;769;-59
2021/06/06 10:32:56;;;;;;;;;;;;;;;22.22;50.97;100791.25;5017878;28;1910;-58
2021/06/06 10:35:25;;;;;;;;;;;;;;;22.22;51.19;100790.44;5034376;28;884;-58
2021/06/06 10:37:52;;;;;;;;;;;;;;;21.84;50.38;100786.00;5034971;28;883;-58
2021/06/06 10:40:24;;;;;;;;;;;;;;;21.84;51.03;100783.22;5035815;28;760;-59
2021/06/06 10:42:50;;;;;;;;;;;;;;;22.10;51.67;100782.66;5036044;28;868;-58
2021/06/06 10:45:29;;;;;;;;;;;;;;;22.58;50.28;100780.50;5035982;28;757;-59
2021/06/06 10:47:56;;;;;;;;;;;;;;;22.37;50.77;100779.03;5034393;28;1030;-59
2021/06/06 10:50:41;;;;;;;;;;;;;;;22.28;51.18;100785.63;5018186;28;769;-59
2021/06/06 10:53:07;;;;;;;;;;;;;;;21.98;50.73;100779.59;5018393;28;1905;-49
2021/06/06 10:55:36;;;;;;;;;;;;;;;21.70;49.71;100776.91;5018647;28;875;-57
2021/06/06 10:58:16;;;;;;;;;;;;;;;21.99;52.09;100781.25;5018636;28;756;-57
2021/06/06 11:00:42;;;;;;;;;;;;;;;22.30;51.24;100781.41;5018356;28;786;-58
2021/06/06 11:03:11;;;;;;;;;;;;;;;22.65;50.19;100780.88;4997636;28;1121;-58
2021/06/06 11:05:45;;;;;;;;;;;;;;;22.30;50.98;100780.56;5016669;28;784;-59
2021/06/06 11:08:29;;;;;;;;;;;;;;;22.01;51.83;100781.78;4998583;28;1101;-60
2021/06/06 11:10:57;;;;;;;;;;;;;;;21.64;51.62;100787.25;5015776;28;864;-57
2021/06/06 11:13:38;;;;;;;;;;;;;;;21.61;52.37;100781.50;5016177;28;1906;-58
2021/06/06 11:16:16;;;;;;;;;;;;;;;22.09;51.88;100786.59;5016115;28;1180;-54
2021/06/06 11:19:00;;;;;;;;;;;;;;;22.50;50.66;100791.22;5032151;28;1008;-54
2021/06/06 11:21:33;;;;;;;;;;;;;;;22.27;51.14;100786.72;5036484;28;849;-61
2021/06/06 11:23:59;;;;;;;;;;;;;;;22.13;51.80;100786.78;5035630;28;808;-63
2021/06/06 11:26:35;;;;;;;;;;;;;;;21.84;51.04;100786.00;5035559;28;785;-59
2021/06/06 11:29:18;;;;;;;;;;;;;;;21.58;50.78;100782.13;5036203;28;792;-57
2021/06/06 11:32:02;;;;;;;;;;;;;;;21.92;52.43;100772.56;5035381;28;996;-59
2021/06/06 11:34:28;;;;;;;;;;;;;;;22.47;50.82;100777.97;5035519;28;776;-59
2021/06/06 11:37:10;;;;;;;;;;;;;;;22.76;50.07;100779.47;5039299;28;891;-58
2021/06/06 11:39:45;;;;;;;;;;;;;;;22.05;51.72;100780.03;5021534;28;1203;-59
2021/06/06 11:42:17;;;;;;;;;;;;;;;21.88;52.33;100778.72;5039396;28;764;-59
2021/06/06 11:44:44;;;;;;;;;;;;;;;21.26;53.34;100781.03;5039229;28;855;-60
2021/06/06 11:47:11;;;;;;;;;;;;;;;21.88;52.06;100775.13;5019906;28;933;-60
2021/06/06 11:49:39;;;;;;;;;;;;;;;21.97;51.79;100770.50;5039316;28;809;-59
2021/06/06 11:52:12;;;;;;;;;;;;;;;22.26;51.08;100785.09;5039209;28;1920;-58
2021/06/06 11:54:46;;;;;;;;;;;;;;;22.10;51.60;100779.09;5038509;28;748;-59
2021/06/06 11:57:16;;;;;;;;;;;;;;;22.29;51.04;100779.75;5021531;28;752;-60
2021/06/06 11:59:44;;;;;;;;;;;;;;;22.19;51.21;100774.47;5021336;28;753;-57
2021/06/06 12:02:15;;;;;;;;;;;;;;;22.20;51.29;100779.69;5020504;28;944;-58
2021/06/06 12:04:41;;;;;;;;;;;;;;;22.37;50.79;100787.34;5039083;28;741;-58
2021/06/06 12:07:25;;;;;;;;;;;;;;;22.25;51.23;100777.94;5020935;28;843;-60
2021/06/06 12:09:51;;;;;;;;;;;;;;;22.32;51.03;100790.22;5038686;28;796;-60
2021/06/06 12:12:26;;;;;;;;;;;;;;;22.14;51.54;100783.69;5038735;28;1894;-59
2021/06/06 12:15:03;;;;;;;;;;;;;;;22.28;51.29;100782.84;5038407;28;815;-59
2021/06/06 12:17:28;;;;;;;;;;;;;;;22.58;50.29;100792.41;5037989;28;1249;-59
2021/06/06 12:19:55;;;;;;;;;;;;;;;22.54;50.47;100789.44;5038465;28;749;-55
2021/06/06 12:22:24;;;;;;;;;;;;;;;22.49;50.52;100784.00;5038048;28;1212;-62
2021/06/06 12:25:09;;;;;;;;;;;;;;;22.42;50.78;100780.88;5038225;28;828;-53
2021/06/06 12:27:58;;;;;;;;;;;;;;;22.41;50.75;100782.00;5038238;28;744;-62
2021/06/06 12:30:25;;;;;;;;;;;;;;;22.44;50.71;100781.38;5032736;28;1173;-60
2021/06/06 12:32:59;;;;;;;;;;;;;;;22.39;50.95;100779.53;5037748;28;1967;-56
2021/06/06 12:35:29;;;;;;;;;;;;;;;22.51;50.52;100765.13;5038055;28;811;-59
2021/06/06 12:37:56;;;;;;;;;;;;;;;22.35;51.03;100764.69;5020253;28;817;-59
2021/06/06 12:40:22;;;;;;;;;;;;;;;22.40;51.01;100769.28;5038067;28;790;-61
2021/06/06 12:42:49;;;;;;;;;;;;;;;22.32;51.13;100773.59;5019975;28;942;-62
2021/06/06 12:45:15;;;;;;;;;;;;;;;22.40;50.80;100758.22;5020780;28;830;-61
2021/06/06 12:47:42;;;;;;;;;;;;;;;21.92;52.29;100754.00;5018529;28;945;-60
2021/06/06 12:50:19;;;;;;;;;;;;;;;22.07;51.96;100768.63;5037830;28;764;-61
2021/06/06 12:52:45;;;;;;;;;;;;;;;21.77;51.74;100769.00;5035984;28;1906;-59
2021/06/06 12:55:22;;;;;;;;;;;;;;;21.37;52.66;100768.66;5037769;28;776;-59
2021/06/06 12:57:58;;;;;;;;;;;;;;;21.81;52.71;100770.03;5019307;28;774;-61
2021/06/06 13:00:23;;;;;;;;;;;;;;;22.11;51.67;100777.97;5019980;28;876;-62
2021/06/06 13:02:49;;;;;;;;;;;;;;;22.21;51.39;100784.06;5036847;28;987;-51